Time;durP1;ratioP1;P1;durP2;ratioP2;P2;SDS_P1;SDS_P2;PMS_P1;PMS_P2;Temp;Humidity;BMP_temperature;BMP_pressure;BME280_temperature;BME280_humidity;BME280_pressure;Samples;Min_cycle;Max_cycle;Signal;HPM_P1;HPM_P2
2021/07/15 00:00:10;;;;;;;28.60;17.87;;;;;;;16.63;92.58;101477.63;690681;28;806;-59
2021/07/15 00:00:41;;;;;;;27.80;18.60;;;;;;;16.63;92.37;101489.13;690572;28;1089;-59
2021/07/15 00:01:06;;;;;;;29.08;17.88;;;;;;;16.63;92.34;101491.78;690786;28;986;-59
2021/07/15 00:01:27;;;;;;;26.10;18.48;;;;;;;16.64;92.42;101484.66;690837;28;868;-59
2021/07/15 00:01:48;;;;;;;25.63;17.70;;;;;;;16.63;92.37;101483.81;690901;28;797;-59
2021/07/15 00:02:13;;;;;;;27.75;17.45;;;;;;;16.66;92.51;101485.44;690605;28;904;-59
2021/07/15 00:02:33;;;;;;;28.27;17.70;;;;;;;16.65;92.25;101491.69;690693;28;1090;-58
2021/07/15 00:02:54;;;;;;;28.03;18.13;;;;;;;16.65;92.48;101489.03;690334;28;931;-59
2021/07/15 00:03:20;;;;;;;27.67;17.80;;;;;;;16.64;92.23;101487.31;690688;28;1070;-59
2021/07/15 00:03:41;;;;;;;27.15;17.17;;;;;;;16.63;92.12;101486.47;690782;28;865;-59
2021/07/15 00:04:04;;;;;;;25.63;16.80;;;;;;;16.64;92.25;101487.31;690624;28;1026;-58
2021/07/15 00:04:24;;;;;;;25.35;17.30;;;;;;;16.63;92.32;101489.13;690719;28;1150;-59
2021/07/15 00:04:46;;;;;;;26.20;17.20;;;;;;;16.66;92.26;101485.44;690744;28;993;-59
2021/07/15 00:05:17;;;;;;;24.65;16.98;;;;;;;16.66;92.06;101488.97;690706;28;1003;-59
2021/07/15 00:05:39;;;;;;;25.27;16.70;;;;;;;16.68;92.16;101489.72;690850;28;859;-59
2021/07/15 00:05:59;;;;;;;25.10;16.40;;;;;;;16.67;92.07;101490.66;690652;28;1011;-59
2021/07/15 00:06:19;;;;;;;25.43;16.20;;;;;;;16.66;91.92;101493.44;690697;28;955;-59
2021/07/15 00:06:41;;;;;;;24.98;16.42;;;;;;;16.65;92.19;101494.34;690562;28;991;-58
2021/07/15 00:07:01;;;;;;;24.40;16.60;;;;;;;16.66;91.84;101483.63;690820;28;1030;-58
2021/07/15 00:07:21;;;;;;;23.53;16.13;;;;;;;16.65;91.91;101481.91;690824;28;829;-59
2021/07/15 00:07:45;;;;;;;22.73;16.15;;;;;;;16.66;91.81;101482.78;690730;28;1033;-58
2021/07/15 00:08:14;;;;;;;24.42;16.70;;;;;;;16.62;92.11;101492.75;690715;28;1910;-59
2021/07/15 00:08:35;;;;;;;25.50;16.65;;;;;;;16.63;91.87;101498.91;690556;28;1023;-58
2021/07/15 00:08:57;;;;;;;26.03;17.00;;;;;;;16.60;92.33;101495.47;690790;28;781;-58
2021/07/15 00:09:17;;;;;;;25.92;17.27;;;;;;;16.59;92.24;101483.13;690790;28;1079;-60
2021/07/15 00:09:38;;;;;;;26.92;17.02;;;;;;;16.60;92.30;101497.28;690725;28;852;-59
2021/07/15 00:09:58;;;;;;;25.83;16.70;;;;;;;16.60;92.33;101495.47;690840;28;761;-58
2021/07/15 00:10:25;;;;;;;24.83;16.50;;;;;;;16.60;92.47;101499.94;690625;28;802;-59
2021/07/15 00:10:49;;;;;;;24.90;16.60;;;;;;;16.60;92.34;101490.16;690683;28;979;-58
2021/07/15 00:11:11;;;;;;;25.05;16.33;;;;;;;16.61;92.25;101491.00;690714;28;1003;-59
2021/07/15 00:11:37;;;;;;;26.00;16.58;;;;;;;16.64;92.45;101497.97;690678;28;939;-59
2021/07/15 00:11:58;;;;;;;23.83;16.45;;;;;;;16.63;92.26;101496.25;690763;28;868;-60
2021/07/15 00:12:18;;;;;;;22.83;16.05;;;;;;;16.63;92.18;101490.94;690663;28;856;-58
2021/07/15 00:12:42;;;;;;;24.85;16.13;;;;;;;16.62;92.27;101490.09;690439;28;823;-58
2021/07/15 00:13:03;;;;;;;22.95;15.68;;;;;;;16.63;92.25;101493.59;690643;28;810;-58
2021/07/15 00:13:24;;;;;;;22.60;15.02;;;;;;;16.60;92.28;101492.81;690656;28;1035;-59
2021/07/15 00:13:45;;;;;;;24.70;16.05;;;;;;;16.60;92.37;101490.16;690805;28;844;-59
2021/07/15 00:14:06;;;;;;;26.83;16.70;;;;;;;16.61;92.18;101491.00;690838;28;880;-59
2021/07/15 00:14:27;;;;;;;26.63;16.30;;;;;;;16.61;92.21;101489.19;690681;28;884;-58
2021/07/15 00:14:48;;;;;;;23.92;16.23;;;;;;;16.60;92.28;101492.81;690710;28;1006;-58
2021/07/15 00:15:10;;;;;;;24.50;16.63;;;;;;;16.60;92.09;101489.31;690679;28;939;-58
2021/07/15 00:15:34;;;;;;;25.35;16.08;;;;;;;16.62;92.14;101490.09;690783;28;826;-57
2021/07/15 00:15:57;;;;;;;25.65;16.05;;;;;;;16.61;92.32;101491.84;690737;28;872;-57
2021/07/15 00:16:17;;;;;;;25.27;16.92;;;;;;;16.61;92.40;101483.88;690744;28;859;-60
2021/07/15 00:16:41;;;;;;;25.83;16.43;;;;;;;16.59;92.42;101496.44;690725;28;851;-58
2021/07/15 00:17:02;;;;;;;22.77;16.38;;;;;;;16.57;92.45;101498.31;690617;28;915;-59
2021/07/15 00:17:23;;;;;;;25.17;16.63;;;;;;;16.55;92.64;101492.22;690710;28;952;-59
2021/07/15 00:17:44;;;;;;;24.45;16.88;;;;;;;16.55;92.43;101492.22;690847;28;913;-59
2021/07/15 00:18:09;;;;;;;24.73;17.10;;;;;;;16.53;92.38;101491.44;690591;28;1423;-59
2021/07/15 00:18:33;;;;;;;24.70;16.30;;;;;;;16.54;92.59;101495.81;690789;28;891;-59
2021/07/15 00:19:00;;;;;;;24.60;16.25;;;;;;;16.55;92.59;101496.66;690636;28;797;-59
2021/07/15 00:19:26;;;;;;;25.30;16.40;;;;;;;16.52;92.40;101489.75;690855;28;907;-59
2021/07/15 00:19:46;;;;;;;25.17;16.45;;;;;;;16.52;92.48;101497.72;690776;28;951;-58
2021/07/15 00:20:13;;;;;;;24.70;16.47;;;;;;;16.51;92.70;101487.16;690694;28;899;-59
2021/07/15 00:20:36;;;;;;;26.88;16.83;;;;;;;16.50;92.88;101488.97;690774;28;1051;-59
2021/07/15 00:20:58;;;;;;;24.98;16.60;;;;;;;16.52;92.63;101497.72;690483;28;908;-59
2021/07/15 00:21:21;;;;;;;22.02;15.95;;;;;;;16.50;92.59;101491.63;690769;28;1101;-58
2021/07/15 00:21:42;;;;;;;22.25;16.20;;;;;;;16.52;92.70;101489.75;690680;28;883;-59
2021/07/15 00:22:02;;;;;;;24.47;16.87;;;;;;;16.51;92.66;101487.16;690778;28;911;-59
2021/07/15 00:22:23;;;;;;;24.73;16.70;;;;;;;16.51;92.88;101490.66;690781;28;975;-59
2021/07/15 00:22:44;;;;;;;26.03;16.00;;;;;;;16.52;92.73;101492.41;690325;28;964;-59
2021/07/15 00:23:05;;;;;;;22.88;16.77;;;;;;;16.52;92.80;101492.41;690499;28;999;-59
2021/07/15 00:23:27;;;;;;;22.67;16.15;;;;;;;16.52;92.64;101492.41;691328;28;951;-58
2021/07/15 00:23:49;;;;;;;24.25;16.33;;;;;;;16.52;92.62;101492.41;691132;28;1030;-58
2021/07/15 00:24:09;;;;;;;25.50;16.15;;;;;;;16.53;92.71;101487.94;691165;28;1023;-59
2021/07/15 00:24:29;;;;;;;24.13;16.17;;;;;;;16.53;92.69;101496.78;691207;28;932;-58
2021/07/15 00:24:50;;;;;;;22.87;16.67;;;;;;;16.52;92.64;101489.75;691244;28;801;-59
2021/07/15 00:25:16;;;;;;;23.77;16.60;;;;;;;16.53;92.77;101494.09;691088;28;1059;-58
2021/07/15 00:25:38;;;;;;;24.50;16.52;;;;;;;16.54;92.58;101495.81;691131;28;1003;-58
2021/07/15 00:25:59;;;;;;;25.35;16.73;;;;;;;16.53;92.83;101488.78;691265;28;871;-59
2021/07/15 00:26:22;;;;;;;25.38;16.58;;;;;;;16.49;92.80;101487.25;691225;28;1510;-59
2021/07/15 00:26:42;;;;;;;27.52;17.67;;;;;;;16.51;92.93;101493.31;691060;28;1423;-58
2021/07/15 00:27:02;;;;;;;25.10;16.77;;;;;;;16.51;93.00;101488.00;691126;28;959;-59
2021/07/15 00:27:25;;;;;;;24.88;16.50;;;;;;;16.51;93.03;101493.31;690624;28;1379;-58
2021/07/15 00:27:51;;;;;;;24.77;16.33;;;;;;;16.52;92.73;101489.75;691303;28;1010;-59
2021/07/15 00:28:12;;;;;;;24.38;15.82;;;;;;;16.52;92.93;101489.75;691187;28;1911;-58
2021/07/15 00:28:32;;;;;;;26.53;16.93;;;;;;;16.52;92.73;101500.38;691232;28;793;-58
2021/07/15 00:28:52;;;;;;;25.40;16.45;;;;;;;16.54;92.77;101495.81;691159;28;1007;-59
2021/07/15 00:29:13;;;;;;;26.90;16.83;;;;;;;16.53;92.85;101493.25;691130;28;900;-59
2021/07/15 00:29:36;;;;;;;26.97;16.77;;;;;;;16.52;92.73;101497.72;691205;28;983;-58
2021/07/15 00:29:56;;;;;;;26.92;16.58;;;;;;;16.52;93.01;101497.72;691326;28;912;-58
2021/07/15 00:30:17;;;;;;;25.13;16.37;;;;;;;16.54;92.90;101495.81;688287;28;970;-59
2021/07/15 00:30:37;;;;;;;27.23;16.30;;;;;;;16.55;92.67;101505.53;691270;28;874;-59
2021/07/15 00:30:57;;;;;;;26.43;16.30;;;;;;;16.56;92.71;101501.91;691129;28;1093;-58
2021/07/15 00:31:18;;;;;;;23.23;15.93;;;;;;;16.55;92.90;101502.88;691096;28;975;-59
2021/07/15 00:31:39;;;;;;;23.65;15.85;;;;;;;16.55;92.76;101502.00;691250;28;859;-58
2021/07/15 00:31:59;;;;;;;25.27;16.52;;;;;;;16.56;92.72;101496.59;691213;28;860;-59
2021/07/15 00:32:20;;;;;;;25.13;16.70;;;;;;;16.54;92.83;101503.78;691249;28;975;-59
2021/07/15 00:32:40;;;;;;;24.17;15.63;;;;;;;16.56;92.70;101496.59;690964;28;1298;-59
2021/07/15 00:33:05;;;;;;;25.10;16.33;;;;;;;16.58;92.82;101502.69;690948;28;994;-58
2021/07/15 00:33:28;;;;;;;24.80;16.10;;;;;;;16.57;92.67;101492.97;691175;28;833;-59
2021/07/15 00:33:51;;;;;;;23.90;15.55;;;;;;;16.57;92.61;101500.13;691258;28;852;-58
2021/07/15 00:34:11;;;;;;;24.23;15.75;;;;;;;16.59;92.45;101499.09;691245;28;793;-59
2021/07/15 00:34:31;;;;;;;25.80;16.23;;;;;;;16.58;92.52;101500.00;691203;28;940;-58
2021/07/15 00:34:55;;;;;;;25.87;16.10;;;;;;;16.58;92.55;101502.69;691163;28;864;-58
2021/07/15 00:35:15;;;;;;;24.02;15.40;;;;;;;16.60;92.73;101502.59;691273;28;848;-58
2021/07/15 00:35:39;;;;;;;24.38;15.70;;;;;;;16.60;92.44;101495.47;691121;28;912;-58
2021/07/15 00:36:00;;;;;;;23.98;16.05;;;;;;;16.64;92.59;101505.94;691172;28;1101;-58
2021/07/15 00:36:21;;;;;;;24.10;16.10;;;;;;;16.64;92.51;101504.16;691244;28;951;-59
2021/07/15 00:36:41;;;;;;;23.75;15.45;;;;;;;16.63;92.42;101509.56;691086;28;952;-59
2021/07/15 00:37:02;;;;;;;25.15;16.02;;;;;;;16.61;92.47;101501.66;691214;28;947;-59
2021/07/15 00:37:22;;;;;;;25.75;16.42;;;;;;;16.61;92.32;101502.50;691164;28;884;-60
2021/07/15 00:37:44;;;;;;;23.83;16.03;;;;;;;16.59;92.48;101501.75;691166;28;852;-59
2021/07/15 00:38:05;;;;;;;22.35;15.75;;;;;;;16.61;92.29;101497.19;691219;28;1455;-58
2021/07/15 00:38:26;;;;;;;23.73;16.02;;;;;;;16.62;92.22;101503.38;691250;28;1030;-59
2021/07/15 00:38:47;;;;;;;25.52;16.58;;;;;;;16.58;92.38;101505.34;691142;28;915;-59
2021/07/15 00:39:08;;;;;;;24.77;16.40;;;;;;;16.58;92.50;101499.16;691209;28;1215;-59
2021/07/15 00:39:28;;;;;;;24.35;16.42;;;;;;;16.56;92.65;101503.72;691226;28;825;-58
2021/07/15 00:39:49;;;;;;;25.77;16.97;;;;;;;16.58;92.69;101501.81;691163;28;963;-59
2021/07/15 00:40:11;;;;;;;24.70;17.20;;;;;;;16.58;92.69;101500.00;691414;28;832;-59
2021/07/15 00:40:33;;;;;;;24.40;16.83;;;;;;;16.57;92.60;101503.63;691159;28;900;-58
2021/07/15 00:40:53;;;;;;;27.95;17.10;;;;;;;16.58;92.60;101504.47;691162;28;921;-58
2021/07/15 00:41:14;;;;;;;26.73;16.33;;;;;;;16.59;92.70;101506.22;691250;28;805;-58
2021/07/15 00:41:35;;;;;;;24.83;16.35;;;;;;;16.60;92.38;101505.25;691046;28;1003;-58
2021/07/15 00:41:55;;;;;;;27.63;16.67;;;;;;;16.57;92.57;101498.31;691317;28;824;-58
2021/07/15 00:42:16;;;;;;;26.43;16.43;;;;;;;16.58;92.46;101502.69;691248;28;932;-59
2021/07/15 00:42:37;;;;;;;27.02;17.17;;;;;;;16.59;92.33;101504.41;691172;28;848;-59
2021/07/15 00:43:00;;;;;;;25.05;16.52;;;;;;;16.60;92.44;101505.25;690850;28;860;-59
2021/07/15 00:43:20;;;;;;;25.88;16.50;;;;;;;16.59;92.25;101501.75;691194;28;955;-59
2021/07/15 00:43:41;;;;;;;27.07;16.77;;;;;;;16.57;92.39;101510.75;691172;28;837;-59
2021/07/15 00:44:02;;;;;;;27.42;17.00;;;;;;;16.59;92.46;101504.41;691205;28;1015;-59
2021/07/15 00:44:22;;;;;;;24.65;16.33;;;;;;;16.60;92.30;101502.59;691210;28;963;-59
2021/07/15 00:44:43;;;;;;;25.27;16.57;;;;;;;16.57;92.38;101516.06;691210;28;905;-59
2021/07/15 00:45:07;;;;;;;26.30;16.55;;;;;;;16.57;92.56;101500.97;691194;28;887;-59
2021/07/15 00:45:27;;;;;;;26.15;17.02;;;;;;;16.58;92.73;101507.13;691079;28;1256;-59
2021/07/15 00:45:47;;;;;;;26.23;16.93;;;;;;;16.59;92.30;101498.25;691196;28;820;-59
2021/07/15 00:46:08;;;;;;;27.13;16.58;;;;;;;16.58;92.75;101502.69;691156;28;809;-59
2021/07/15 00:46:28;;;;;;;25.77;16.43;;;;;;;16.60;92.61;101506.13;691176;28;987;-59
2021/07/15 00:46:48;;;;;;;25.07;16.53;;;;;;;16.60;92.56;101492.81;691058;28;1176;-60
2021/07/15 00:47:09;;;;;;;25.48;16.45;;;;;;;16.60;92.30;101500.78;691078;28;1039;-59
2021/07/15 00:47:29;;;;;;;27.17;16.73;;;;;;;16.60;92.68;101500.78;691235;28;849;-59
2021/07/15 00:47:49;;;;;;;26.30;17.23;;;;;;;16.60;92.40;101494.63;691041;28;1275;-59
2021/07/15 00:48:10;;;;;;;24.17;16.23;;;;;;;16.60;92.52;101495.47;691075;28;1903;-60
2021/07/15 00:48:30;;;;;;;24.27;15.93;;;;;;;16.61;92.28;101502.50;691240;28;854;-59
2021/07/15 00:48:51;;;;;;;25.67;15.90;;;;;;;16.61;92.41;101502.50;691073;28;1078;-59
2021/07/15 00:49:11;;;;;;;24.53;15.87;;;;;;;16.64;92.36;101503.28;691184;28;844;-59
2021/07/15 00:49:32;;;;;;;25.02;16.17;;;;;;;16.63;92.21;101504.25;691157;28;911;-57
2021/07/15 00:49:55;;;;;;;23.60;15.77;;;;;;;16.63;92.28;101509.56;691078;28;867;-58
2021/07/15 00:50:18;;;;;;;22.58;15.80;;;;;;;16.61;92.33;101507.81;691280;28;915;-59
2021/07/15 00:50:40;;;;;;;23.65;16.30;;;;;;;16.61;92.30;101507.81;691173;28;1011;-58
2021/07/15 00:51:00;;;;;;;25.77;16.45;;;;;;;16.62;92.44;101503.38;691085;28;1023;-58
2021/07/15 00:51:21;;;;;;;27.30;16.70;;;;;;;16.64;92.28;101511.28;691139;28;1366;-60
2021/07/15 00:51:41;;;;;;;25.50;16.40;;;;;;;16.64;92.36;101505.94;691135;28;837;-59
2021/07/15 00:52:02;;;;;;;23.37;16.53;;;;;;;16.63;92.43;101515.75;691128;28;987;-59
2021/07/15 00:52:23;;;;;;;24.50;16.67;;;;;;;16.64;92.37;101516.59;691167;28;898;-59
2021/07/15 00:52:48;;;;;;;25.08;16.42;;;;;;;16.63;92.34;101509.56;690775;28;1101;-59
2021/07/15 00:53:08;;;;;;;24.45;16.27;;;;;;;16.64;92.25;101508.59;691074;28;895;-59
2021/07/15 00:53:29;;;;;;;24.70;17.00;;;;;;;16.60;92.28;101506.13;691202;28;876;-58
2021/07/15 00:53:52;;;;;;;24.90;16.93;;;;;;;16.59;92.55;101504.41;691090;28;943;-58
2021/07/15 00:54:12;;;;;;;25.13;16.65;;;;;;;16.61;92.34;101506.97;691062;28;967;-59
2021/07/15 00:54:33;;;;;;;24.52;17.02;;;;;;;16.59;92.55;101509.72;690925;28;1049;-60
2021/07/15 00:54:53;;;;;;;25.57;16.57;;;;;;;16.56;92.62;101511.72;690905;28;1401;-58
2021/07/15 00:55:20;;;;;;;25.77;16.55;;;;;;;16.56;92.47;101509.06;691179;28;864;-58
2021/07/15 00:55:42;;;;;;;24.08;16.77;;;;;;;16.54;92.53;101506.47;691123;28;824;-58
2021/07/15 00:56:03;;;;;;;25.10;17.13;;;;;;;16.54;92.52;101502.94;691166;28;884;-59
2021/07/15 00:56:23;;;;;;;26.08;16.88;;;;;;;16.53;92.69;101504.75;691110;28;858;-59
2021/07/15 00:56:46;;;;;;;26.53;16.90;;;;;;;16.53;92.54;101504.75;691011;28;1145;-59
2021/07/15 00:57:12;;;;;;;25.05;16.70;;;;;;;16.51;92.64;101506.63;691041;28;871;-59
2021/07/15 00:57:33;;;;;;;23.67;16.17;;;;;;;16.53;92.81;101512.72;691151;28;864;-59
2021/07/15 00:57:53;;;;;;;25.97;17.17;;;;;;;16.54;92.58;101506.47;691036;28;1284;-58
2021/07/15 00:58:16;;;;;;;28.43;17.30;;;;;;;16.54;92.76;101509.13;691158;28;880;-59
2021/07/15 00:58:36;;;;;;;24.80;16.33;;;;;;;16.56;92.58;101501.91;690978;28;1109;-60
2021/07/15 00:58:57;;;;;;;24.53;16.80;;;;;;;16.54;92.60;101501.13;691106;28;782;-58
2021/07/15 00:59:20;;;;;;;25.73;16.88;;;;;;;16.56;92.81;101511.72;691050;28;1037;-59
2021/07/15 00:59:41;;;;;;;25.00;16.75;;;;;;;16.53;92.76;101499.44;691218;28;893;-58
2021/07/15 01:00:04;;;;;;;24.53;16.33;;;;;;;16.53;92.85;101499.44;691179;28;1038;-59
2021/07/15 01:00:25;;;;;;;25.52;16.50;;;;;;;16.51;92.96;101495.97;690884;28;1296;-59
2021/07/15 01:00:49;;;;;;;26.55;16.95;;;;;;;16.49;92.91;101508.53;691015;28;1906;-58
2021/07/15 01:01:09;;;;;;;24.77;16.77;;;;;;;16.49;93.05;101499.69;691065;28;1007;-59
2021/07/15 01:01:30;;;;;;;25.52;17.17;;;;;;;16.50;93.00;101499.59;691075;28;938;-59
2021/07/15 01:01:50;;;;;;;26.07;17.43;;;;;;;16.52;92.73;101503.03;691172;28;954;-60
2021/07/15 01:02:10;;;;;;;25.98;16.98;;;;;;;16.52;92.83;101502.19;691071;28;904;-58
2021/07/15 01:02:31;;;;;;;25.80;16.87;;;;;;;16.49;92.98;101502.34;691111;28;1236;-59
2021/07/15 01:02:53;;;;;;;28.00;17.30;;;;;;;16.51;92.83;101495.97;690706;28;874;-59
2021/07/15 01:03:14;;;;;;;24.92;16.13;;;;;;;16.49;93.03;101499.69;691060;28;947;-58
2021/07/15 01:03:35;;;;;;;27.58;16.77;;;;;;;16.48;93.12;101500.63;691190;28;868;-58
2021/07/15 01:03:55;;;;;;;29.60;17.60;;;;;;;16.46;92.94;101498.06;691189;28;951;-59
2021/07/15 01:04:18;;;;;;;26.37;16.83;;;;;;;16.48;93.02;101498.84;691072;28;998;-58
2021/07/15 01:04:38;;;;;;;24.98;16.48;;;;;;;16.51;92.88;101501.31;691125;28;844;-59
2021/07/15 01:04:59;;;;;;;25.57;16.33;;;;;;;16.51;92.72;101495.97;689702;28;1303;-59
2021/07/15 01:05:22;;;;;;;25.75;16.80;;;;;;;16.51;92.85;101498.66;690782;28;980;-59
2021/07/15 01:05:44;;;;;;;24.52;16.27;;;;;;;16.55;92.74;101500.22;690964;28;908;-59
2021/07/15 01:06:05;;;;;;;25.13;16.63;;;;;;;16.54;92.74;101495.81;690845;28;1033;-60
2021/07/15 01:06:25;;;;;;;24.30;16.25;;;;;;;16.55;92.51;101494.91;690881;28;886;-59
2021/07/15 01:06:45;;;;;;;24.37;16.30;;;;;;;16.54;92.66;101485.16;690787;28;959;-58
2021/07/15 01:07:06;;;;;;;27.40;17.10;;;;;;;16.54;92.58;101498.47;690900;28;1002;-58
2021/07/15 01:07:26;;;;;;;24.57;16.43;;;;;;;16.49;92.95;101497.88;691078;28;998;-58
2021/07/15 01:07:46;;;;;;;27.43;17.37;;;;;;;16.47;92.91;101494.44;690967;28;1246;-58
2021/07/15 01:08:08;;;;;;;25.63;16.92;;;;;;;16.51;92.78;101490.66;691097;28;2228;-60
2021/07/15 01:08:28;;;;;;;26.80;16.63;;;;;;;16.48;93.08;101490.88;691049;28;1023;-58
2021/07/15 01:08:48;;;;;;;27.00;17.10;;;;;;;16.48;93.05;101490.88;690991;28;1008;-58
2021/07/15 01:09:12;;;;;;;24.40;16.60;;;;;;;16.45;92.96;101496.34;690954;28;995;-59
2021/07/15 01:09:32;;;;;;;25.70;17.10;;;;;;;16.46;93.02;101492.75;691192;28;1030;-58
2021/07/15 01:09:53;;;;;;;25.00;17.00;;;;;;;16.46;93.07;101495.41;691075;28;971;-59
2021/07/15 01:10:17;;;;;;;25.53;16.93;;;;;;;16.45;93.03;101500.78;690762;28;1262;-59
2021/07/15 01:10:40;;;;;;;26.30;16.85;;;;;;;16.44;93.11;101499.94;690996;28;839;-59
2021/07/15 01:11:16;;;;;;;26.65;16.98;;;;;;;16.44;93.07;101493.75;690956;28;864;-59
2021/07/15 01:11:45;;;;;;;26.33;17.10;;;;;;;16.43;93.13;101500.88;691009;28;899;-61
2021/07/15 01:12:32;;;;;;;25.98;16.25;;;;;;;16.44;93.28;101504.41;691152;28;884;-59
2021/07/15 01:13:31;;;;;;;25.13;17.02;;;;;;;16.42;93.15;101501.84;690545;28;989;-60
2021/07/15 01:14:08;;;;;;;27.50;16.90;;;;;;;16.40;93.25;101503.72;691066;28;844;-60
2021/07/15 01:14:38;;;;;;;26.10;16.65;;;;;;;16.42;93.38;101508.97;690947;28;1023;-59
2021/07/15 01:15:32;;;;;;;27.48;17.33;;;;;;;16.42;93.58;101504.50;690981;28;1198;-60
2021/07/15 01:16:39;;;;;;;27.52;16.95;;;;;;;16.42;93.25;101504.50;687906;28;1332;-60
2021/07/15 01:17:15;;;;;;;25.10;15.45;;;;;;;16.44;93.30;101499.09;687938;28;1030;-60
2021/07/15 01:17:47;;;;;;;25.60;16.73;;;;;;;16.44;93.32;101499.94;688004;28;903;-57
2021/07/15 01:18:28;;;;;;;25.27;16.38;;;;;;;16.46;93.09;101506.03;687922;28;938;-58
2021/07/15 01:19:13;;;;;;;24.48;15.90;;;;;;;16.47;93.11;101505.09;687984;28;880;-59
2021/07/15 01:20:05;;;;;;;24.27;15.65;;;;;;;16.47;93.39;101512.22;688066;28;862;-59
2021/07/15 01:20:40;;;;;;;27.63;16.08;;;;;;;16.47;93.34;101499.78;691120;28;856;-58
2021/07/15 01:21:25;;;;;;;25.40;15.55;;;;;;;16.48;93.04;101504.16;690982;28;1018;-59
2021/07/15 01:22:08;;;;;;;24.88;15.52;;;;;;;16.48;93.05;101501.50;691100;28;1006;-60
2021/07/15 01:22:37;;;;;;;23.73;15.60;;;;;;;16.48;92.96;101504.16;691134;28;890;-60
2021/07/15 01:23:15;;;;;;;23.88;15.90;;;;;;;16.47;92.97;101501.56;690599;28;878;-60
2021/07/15 01:24:06;;;;;;;26.73;16.00;;;;;;;16.47;92.98;101505.09;691166;28;985;-60
2021/07/15 01:25:04;;;;;;;24.60;15.70;;;;;;;16.47;92.88;101498.91;691105;28;950;-60
2021/07/15 01:25:39;;;;;;;23.02;15.95;;;;;;;16.45;93.18;101500.78;690881;28;888;-59
2021/07/15 01:26:02;;;;;;;24.35;16.35;;;;;;;16.45;93.18;101511.44;691112;28;1022;-60
2021/07/15 01:27:07;;;;;;;23.40;16.33;;;;;;;16.42;93.19;101512.47;691114;28;883;-60
2021/07/15 01:27:27;;;;;;;24.52;16.02;;;;;;;16.45;93.57;101512.31;687655;28;1190;-59
2021/07/15 01:27:56;;;;;;;22.30;14.80;;;;;;;16.44;93.56;101515.03;688050;28;1272;-59
2021/07/15 01:28:26;;;;;;;23.27;15.07;;;;;;;16.47;93.24;101515.72;687825;28;1907;-59
2021/07/15 01:29:11;;;;;;;24.17;15.50;;;;;;;16.47;92.93;101514.88;688006;28;1410;-59
2021/07/15 01:30:05;;;;;;;23.55;14.93;;;;;;;16.49;93.12;101520.97;687891;28;900;-58
2021/07/15 01:30:31;;;;;;;23.33;14.48;;;;;;;16.48;93.19;101517.47;690974;28;891;-58
2021/07/15 01:30:59;;;;;;;26.33;15.02;;;;;;;16.48;92.85;101528.13;691129;28;820;-59
2021/07/15 01:31:23;;;;;;;24.83;14.75;;;;;;;16.50;92.86;101520.88;690838;28;943;-59
2021/07/15 01:31:46;;;;;;;21.17;14.43;;;;;;;16.50;92.95;101523.53;691175;28;836;-58
2021/07/15 01:32:07;;;;;;;22.38;14.77;;;;;;;16.48;93.07;101522.78;690961;28;892;-59
2021/07/15 01:32:32;;;;;;;21.27;14.77;;;;;;;16.48;93.13;101520.13;691088;28;915;-60
2021/07/15 01:33:07;;;;;;;22.50;14.80;;;;;;;16.45;93.21;101522.97;690641;28;836;-59
2021/07/15 01:33:33;;;;;;;21.83;14.52;;;;;;;16.45;93.10;101522.97;690890;28;956;-60
2021/07/15 01:33:55;;;;;;;20.92;14.55;;;;;;;16.44;93.03;101515.91;691026;28;949;-60
2021/07/15 01:34:16;;;;;;;22.40;14.93;;;;;;;16.44;92.97;101523.03;690867;28;876;-59
2021/07/15 01:34:40;;;;;;;24.55;14.90;;;;;;;16.44;93.06;101518.56;690651;28;959;-59
2021/07/15 01:35:09;;;;;;;27.50;16.00;;;;;;;16.45;93.10;101514.97;690463;28;808;-59
2021/07/15 01:35:39;;;;;;;22.88;15.43;;;;;;;16.44;93.07;101518.56;690735;28;1019;-59
2021/07/15 01:36:02;;;;;;;25.00;15.52;;;;;;;16.45;93.04;101522.06;690767;28;832;-59
2021/07/15 01:36:23;;;;;;;22.67;14.93;;;;;;;16.46;93.22;101516.69;691106;28;891;-59
2021/07/15 01:36:49;;;;;;;21.23;14.90;;;;;;;16.46;93.07;101524.66;690847;28;935;-59
2021/07/15 01:37:11;;;;;;;21.35;15.23;;;;;;;16.45;93.17;101522.97;691082;28;954;-60
2021/07/15 01:37:33;;;;;;;22.60;14.95;;;;;;;16.44;93.17;101526.53;690499;28;1397;-59
2021/07/15 01:37:57;;;;;;;24.70;15.88;;;;;;;16.43;93.24;101523.97;690861;28;1339;-61
2021/07/15 01:38:21;;;;;;;23.35;15.85;;;;;;;16.40;93.28;101524.16;691094;28;987;-59
2021/07/15 01:38:47;;;;;;;23.70;15.80;;;;;;;16.40;93.39;101527.66;690990;28;1055;-58
2021/07/15 01:39:10;;;;;;;23.98;15.20;;;;;;;16.41;93.35;101526.72;691167;28;1034;-60
2021/07/15 01:39:35;;;;;;;24.95;15.38;;;;;;;16.40;93.43;101519.69;691088;28;826;-58
2021/07/15 01:39:58;;;;;;;24.38;15.63;;;;;;;16.43;93.21;101529.31;691024;28;1022;-59
2021/07/15 01:40:23;;;;;;;23.23;14.75;;;;;;;16.42;93.16;101528.44;691110;28;1069;-58
2021/07/15 01:40:47;;;;;;;22.52;14.60;;;;;;;16.43;93.48;101524.84;690996;28;1093;-59
2021/07/15 01:41:15;;;;;;;22.90;15.23;;;;;;;16.41;93.18;101526.72;691115;28;1002;-59
2021/07/15 01:41:40;;;;;;;23.92;15.95;;;;;;;16.41;93.57;101526.72;690932;28;1026;-59
2021/07/15 01:42:05;;;;;;;26.52;15.35;;;;;;;16.39;93.37;101523.28;691120;28;933;-59
2021/07/15 01:42:27;;;;;;;23.63;14.95;;;;;;;16.39;93.34;101523.28;691059;28;860;-60
2021/07/15 01:43:08;;;;;;;24.83;15.63;;;;;;;16.39;93.62;101523.28;690700;28;980;-59
2021/07/15 01:43:46;;;;;;;26.38;15.77;;;;;;;16.38;93.70;101529.56;691084;28;877;-59
2021/07/15 01:44:23;;;;;;;25.52;15.43;;;;;;;16.39;93.47;101523.28;691057;28;1011;-59
2021/07/15 01:44:44;;;;;;;24.50;15.68;;;;;;;16.40;93.29;101525.00;691170;28;869;-59
2021/07/15 01:45:05;;;;;;;23.75;15.63;;;;;;;16.41;93.31;101523.19;691202;28;1014;-59
2021/07/15 01:45:27;;;;;;;23.67;15.27;;;;;;;16.40;93.38;101525.00;691006;28;1067;-60
2021/07/15 01:45:53;;;;;;;24.77;14.95;;;;;;;16.41;93.64;101523.19;691106;28;1042;-59
2021/07/15 01:46:15;;;;;;;25.42;15.00;;;;;;;16.41;93.62;101520.53;691049;28;915;-59
2021/07/15 01:46:36;;;;;;;25.50;15.63;;;;;;;16.40;93.24;101514.34;691189;28;979;-60
2021/07/15 01:46:56;;;;;;;22.50;15.32;;;;;;;16.37;93.51;101520.69;691094;28;1046;-59
2021/07/15 01:47:17;;;;;;;22.60;15.13;;;;;;;16.37;93.36;101519.84;690968;28;868;-59
2021/07/15 01:47:38;;;;;;;24.38;15.38;;;;;;;16.37;93.81;101522.50;691088;28;853;-59
2021/07/15 01:47:59;;;;;;;25.43;15.50;;;;;;;16.37;93.73;101519.84;690963;28;998;-60
2021/07/15 01:48:19;;;;;;;23.25;15.02;;;;;;;16.37;93.51;101518.03;691006;28;1918;-59
2021/07/15 01:48:41;;;;;;;25.75;15.48;;;;;;;16.40;93.51;101508.19;691123;28;975;-59
2021/07/15 01:49:04;;;;;;;25.90;15.55;;;;;;;16.40;93.71;101518.81;691004;28;1018;-59
2021/07/15 01:49:25;;;;;;;26.25;15.98;;;;;;;16.39;93.37;101517.97;690990;28;1027;-59
2021/07/15 01:49:46;;;;;;;25.85;15.77;;;;;;;16.39;93.72;101512.66;691057;28;1038;-59
2021/07/15 01:50:07;;;;;;;24.80;14.98;;;;;;;16.40;93.49;101517.03;690974;28;927;-59
2021/07/15 01:50:28;;;;;;;21.65;14.95;;;;;;;16.41;93.35;101520.53;691026;28;893;-59
2021/07/15 01:50:52;;;;;;;25.30;15.13;;;;;;;16.42;93.61;101516.94;691048;28;1014;-59
2021/07/15 01:51:22;;;;;;;24.90;15.15;;;;;;;16.42;93.58;101517.81;690994;28;830;-58
2021/07/15 01:51:43;;;;;;;26.63;15.35;;;;;;;16.42;93.53;101512.47;691050;28;904;-59
2021/07/15 01:52:03;;;;;;;24.60;16.07;;;;;;;16.40;93.70;101519.69;690948;28;816;-59
2021/07/15 01:52:25;;;;;;;24.50;16.08;;;;;;;16.38;93.40;101516.25;690988;28;994;-59
2021/07/15 01:52:50;;;;;;;24.98;15.82;;;;;;;16.35;93.30;101511.97;690492;28;1049;-58
2021/07/15 01:53:11;;;;;;;25.73;15.85;;;;;;;16.36;93.37;101518.13;690976;28;892;-58
2021/07/15 01:53:31;;;;;;;25.88;16.60;;;;;;;16.37;93.67;101514.53;691013;28;868;-59